createdAt,value
2018-06-24T00:02:10.477Z,1.10
2018-06-24T00:04:38.913Z,1.13
2018-06-24T00:07:07.513Z,1.20
2018-06-24T00:09:36.238Z,1.00
2018-06-24T00:12:04.698Z,1.03
2018-06-24T00:14:33.174Z,1.10
2018-06-24T00:17:01.809Z,1.10
2018-06-24T00:19:30.493Z,0.90
2018-06-24T00:21:58.965Z,0.90
2018-06-24T00:24:27.521Z,1.20
2018-06-24T00:26:55.937Z,1.30
2018-06-24T00:29:24.422Z,1.30
2018-06-24T00:31:53.133Z,1.10
2018-06-24T00:34:21.621Z,1.40
2018-06-24T00:36:50.307Z,1.40
2018-06-24T00:39:18.885Z,1.00
2018-06-24T00:41:47.334Z,0.90
2018-06-24T00:44:16.065Z,1.30
2018-06-24T00:46:44.657Z,1.23
2018-06-24T00:49:13.089Z,1.20
2018-06-24T00:51:41.537Z,1.03
2018-06-24T00:54:10.558Z,1.10
2018-06-24T00:56:39.102Z,1.10
2018-06-24T00:59:07.697Z,1.17
2018-06-24T01:01:36.450Z,1.00
2018-06-24T01:04:04.894Z,1.50
2018-06-24T01:06:33.350Z,1.30
2018-06-24T01:09:01.995Z,1.00
2018-06-24T01:11:30.449Z,1.10
2018-06-24T01:13:58.917Z,1.10
2018-06-24T01:16:27.939Z,1.10
2018-06-24T01:18:56.369Z,1.07
2018-06-24T01:21:24.902Z,1.40
2018-06-24T01:23:53.429Z,1.30
2018-06-24T01:26:22.196Z,1.23
2018-06-24T01:28:51.033Z,1.43
2018-06-24T01:31:19.927Z,1.03
2018-06-24T01:33:48.377Z,1.20
2018-06-24T01:36:16.817Z,1.20
2018-06-24T01:38:45.488Z,1.30
2018-06-24T01:41:14.006Z,1.20
2018-06-24T01:43:42.441Z,1.20
2018-06-24T01:46:11.740Z,1.23
2018-06-24T01:48:40.161Z,1.10
2018-06-24T01:51:08.624Z,1.30
2018-06-24T01:53:37.484Z,1.30
2018-06-24T01:56:05.922Z,1.13
2018-06-24T01:58:34.369Z,1.23
2018-06-24T02:01:03.506Z,1.43
2018-06-24T02:03:31.950Z,1.63
2018-06-24T02:06:00.429Z,1.27
2018-06-24T02:08:29.281Z,1.23
2018-06-24T02:10:57.721Z,1.80
2018-06-24T02:13:26.205Z,1.27
2018-06-24T02:15:54.854Z,1.20
2018-06-24T02:18:23.269Z,1.40
2018-06-24T02:20:51.715Z,1.70
2018-06-24T02:23:20.225Z,1.63
2018-06-24T02:25:48.649Z,1.43
2018-06-24T02:28:17.101Z,1.60
2018-06-24T02:30:45.647Z,1.80
2018-06-24T02:33:14.270Z,1.60
2018-06-24T02:35:42.703Z,1.93
2018-06-24T02:38:11.121Z,1.97
2018-06-24T02:40:39.533Z,1.73
2018-06-24T02:43:07.997Z,1.50
2018-06-24T02:45:36.629Z,1.70
2018-06-24T02:48:08.625Z,1.70
2018-06-24T02:50:37.105Z,1.63
2018-06-24T02:53:05.529Z,1.40
2018-06-24T02:55:34.433Z,1.63
2018-06-24T02:58:03.637Z,1.57
2018-06-24T03:00:32.058Z,1.57
2018-06-24T03:03:00.849Z,1.57
2018-06-24T03:05:29.785Z,1.30
2018-06-24T03:07:58.229Z,1.57
2018-06-24T03:10:26.649Z,1.50
2018-06-24T03:12:55.101Z,1.57
2018-06-24T03:15:23.528Z,1.40
2018-06-24T03:17:52.005Z,1.47
2018-06-24T03:20:20.509Z,1.40
2018-06-24T03:22:48.932Z,1.57
2018-06-24T03:25:17.398Z,1.50
2018-06-24T03:27:46.097Z,1.77
2018-06-24T03:30:14.519Z,1.63
2018-06-24T03:32:43.242Z,1.27
2018-06-24T03:35:12.257Z,1.40
2018-06-24T03:37:40.677Z,1.43
2018-06-24T03:40:09.097Z,1.50
2018-06-24T03:42:37.617Z,1.50
2018-06-24T03:45:06.497Z,1.30
2018-06-24T03:47:34.921Z,1.50
2018-06-24T03:50:04.389Z,1.50
2018-06-24T03:52:33.320Z,1.80
2018-06-24T03:55:01.745Z,1.20
2018-06-24T03:57:30.269Z,1.50
2018-06-24T03:59:58.689Z,1.70
2018-06-24T04:02:27.123Z,1.13
2018-06-24T04:04:56.702Z,1.57
2018-06-24T04:07:25.241Z,1.40
2018-06-24T04:09:53.749Z,1.20
2018-06-24T04:12:22.269Z,1.67
2018-06-24T04:14:50.696Z,1.43
2018-06-24T04:17:19.221Z,1.40
2018-06-24T04:19:48.141Z,1.90
2018-06-24T04:22:16.590Z,1.53
2018-06-24T04:24:45.106Z,1.30
2018-06-24T04:27:13.833Z,1.40
2018-06-24T04:29:42.251Z,1.40
2018-06-24T04:32:10.677Z,1.60
2018-06-24T04:34:39.691Z,1.47
2018-06-24T04:37:08.121Z,1.40
2018-06-24T04:39:37.429Z,1.50
2018-06-24T04:42:06.925Z,1.27
2018-06-24T04:44:35.366Z,1.40
2018-06-24T04:47:03.819Z,1.30
2018-06-24T04:49:32.729Z,1.30
2018-06-24T04:52:01.504Z,1.47
2018-06-24T04:54:29.939Z,1.63
2018-06-24T04:56:58.633Z,1.27
2018-06-24T04:59:27.056Z,1.33
2018-06-24T05:01:55.485Z,1.33
2018-06-24T05:04:24.537Z,1.37
2018-06-24T05:06:53.077Z,1.67
2018-06-24T05:09:21.501Z,1.33
2018-06-24T05:11:50.033Z,1.10
2018-06-24T05:14:18.457Z,1.57
2018-06-24T05:16:46.888Z,1.60
2018-06-24T05:19:15.630Z,0.97
2018-06-24T05:21:44.045Z,1.20
2018-06-24T05:24:12.456Z,1.10
2018-06-24T05:26:41.173Z,1.00
2018-06-24T05:29:09.853Z,1.00
2018-06-24T05:31:38.288Z,0.80
2018-06-24T05:34:06.917Z,0.80
2018-06-24T05:36:35.342Z,0.83
2018-06-24T05:39:06.202Z,0.83
2018-06-24T05:41:35.047Z,0.73
2018-06-24T05:44:03.774Z,0.93
2018-06-24T05:46:32.657Z,0.90
2018-06-24T05:49:01.307Z,1.00
2018-06-24T05:51:29.881Z,0.90
2018-06-24T05:53:58.497Z,0.70
2018-06-24T05:56:26.937Z,0.77
2018-06-24T05:58:55.381Z,0.97
2018-06-24T06:01:24.018Z,0.70
2018-06-24T06:03:52.665Z,0.73
2018-06-24T06:06:21.085Z,0.70
2018-06-24T06:08:50.190Z,0.70
2018-06-24T06:11:18.958Z,0.70
2018-06-24T06:13:48.086Z,0.67
2018-06-24T06:16:16.712Z,0.87
2018-06-24T06:18:45.614Z,0.80
2018-06-24T06:21:14.109Z,0.80
2018-06-24T06:23:43.313Z,0.83
2018-06-24T06:26:11.971Z,0.73
2018-06-24T06:28:40.402Z,0.90
2018-06-24T06:31:08.942Z,0.77
2018-06-24T06:33:37.745Z,0.80
2018-06-24T06:36:06.377Z,0.77
2018-06-24T06:38:35.210Z,0.83
2018-06-24T06:41:04.661Z,0.80
2018-06-24T06:43:33.093Z,0.93
2018-06-24T06:46:01.622Z,0.63
2018-06-24T06:48:30.542Z,0.70
2018-06-24T06:50:59.525Z,0.50
2018-06-24T06:53:28.054Z,0.60
2018-06-24T06:55:57.235Z,0.50
2018-06-24T06:58:25.973Z,0.43
2018-06-24T07:00:54.499Z,0.80
2018-06-24T07:03:23.215Z,0.60
2018-06-24T07:05:51.720Z,0.50
2018-06-24T07:08:20.225Z,0.83
2018-06-24T07:10:49.161Z,0.67
2018-06-24T07:13:17.620Z,0.70
2018-06-24T07:15:46.187Z,0.60
2018-06-24T07:18:14.842Z,0.50
2018-06-24T07:20:43.294Z,0.57
2018-06-24T07:23:12.265Z,0.60
2018-06-24T07:25:40.854Z,0.60
2018-06-24T07:28:09.457Z,0.60
2018-06-24T07:30:39.742Z,0.60
2018-06-24T07:33:08.744Z,0.60
2018-06-24T07:35:37.153Z,0.40
2018-06-24T07:38:06.085Z,0.70
2018-06-24T07:40:34.916Z,0.50
2018-06-24T07:43:03.661Z,0.70
2018-06-24T07:45:32.125Z,0.47
2018-06-24T07:48:00.877Z,0.40
2018-06-24T07:50:29.307Z,0.57
2018-06-24T07:52:57.862Z,0.40
2018-06-24T07:55:26.510Z,0.42
2018-06-24T07:57:55.918Z,0.40
2018-06-24T08:00:24.426Z,0.50
2018-06-24T08:02:53.497Z,0.30
2018-06-24T08:05:22.101Z,0.40
2018-06-24T08:07:50.520Z,0.30
2018-06-24T08:10:19.222Z,0.40
2018-06-24T08:12:47.750Z,0.50
2018-06-24T08:15:16.393Z,0.40
2018-06-24T08:17:45.621Z,0.30
2018-06-24T08:20:14.042Z,0.23
2018-06-24T08:22:42.807Z,0.50
2018-06-24T08:25:11.385Z,0.40
2018-06-24T08:27:41.626Z,0.50
2018-06-24T08:30:10.358Z,0.50
2018-06-24T08:32:39.274Z,0.42
2018-06-24T08:35:07.807Z,0.42
2018-06-24T08:37:36.961Z,0.40
2018-06-24T08:40:05.990Z,0.40
2018-06-24T08:42:34.925Z,0.47
2018-06-24T08:45:03.493Z,0.40
2018-06-24T08:47:32.370Z,0.50
2018-06-24T08:50:00.789Z,0.50
2018-06-24T08:52:29.289Z,0.65
2018-06-24T08:54:57.831Z,0.30
2018-06-24T08:57:26.249Z,0.47
2018-06-24T08:59:55.172Z,0.30
2018-06-24T09:02:24.093Z,0.40
2018-06-24T09:04:53.048Z,0.37
2018-06-24T09:07:21.466Z,0.40
2018-06-24T09:09:50.124Z,0.42
2018-06-24T09:12:18.945Z,0.30
2018-06-24T09:14:47.735Z,0.40
2018-06-24T09:17:16.390Z,0.40
2018-06-24T09:19:45.356Z,0.30
2018-06-24T09:22:14.146Z,0.30
2018-06-24T09:24:42.874Z,0.40
2018-06-24T09:27:12.837Z,0.20
2018-06-24T09:29:41.250Z,0.50
2018-06-24T09:32:10.162Z,0.42
2018-06-24T09:34:39.153Z,0.23
2018-06-24T09:37:07.677Z,0.50
2018-06-24T09:39:36.821Z,0.20
2018-06-24T09:42:05.426Z,0.50
2018-06-24T09:44:34.845Z,0.40
2018-06-24T09:47:03.425Z,0.25
2018-06-24T09:49:32.227Z,0.40
2018-06-24T09:52:00.663Z,0.30
2018-06-24T09:54:29.198Z,0.30
2018-06-24T09:56:57.729Z,0.20
2018-06-24T09:59:26.201Z,0.30
2018-06-24T10:01:55.006Z,0.20
2018-06-24T10:04:23.778Z,0.30
2018-06-24T10:06:52.203Z,0.50
2018-06-24T10:09:20.828Z,0.50
2018-06-24T10:11:49.361Z,1.37
2018-06-24T10:14:17.802Z,0.35
2018-06-24T10:16:47.019Z,0.50
2018-06-24T10:19:15.529Z,0.20
2018-06-24T10:21:43.978Z,0.35
2018-06-24T10:24:12.641Z,0.50
2018-06-24T10:26:41.362Z,0.70
2018-06-24T10:29:09.812Z,0.50
2018-06-24T10:31:38.673Z,0.40
2018-06-24T10:34:07.404Z,0.30
2018-06-24T10:36:35.888Z,0.20
2018-06-24T10:39:07.063Z,0.40
2018-06-24T10:41:36.798Z,0.50
2018-06-24T10:44:05.349Z,0.30
2018-06-24T10:46:33.941Z,0.30
2018-06-24T10:49:02.560Z,0.43
2018-06-24T10:51:31.109Z,0.40
2018-06-24T10:53:59.974Z,0.50
2018-06-24T10:56:28.442Z,0.33
2018-06-24T10:58:56.993Z,0.70
2018-06-24T11:01:25.730Z,0.30
2018-06-24T11:03:54.781Z,0.33
2018-06-24T11:06:23.661Z,0.30
2018-06-24T11:08:53.344Z,0.20
2018-06-24T11:11:21.821Z,0.20
2018-06-24T11:13:50.606Z,0.60
2018-06-24T11:16:19.508Z,0.40
2018-06-24T11:18:48.146Z,0.40
2018-06-24T11:21:17.001Z,0.50
2018-06-24T11:23:46.004Z,0.60
2018-06-24T11:26:15.390Z,0.30
2018-06-24T11:28:43.982Z,0.40
2018-06-24T11:31:12.700Z,0.17
2018-06-24T11:33:41.649Z,0.30
2018-06-24T11:36:16.526Z,0.20
2018-06-24T11:38:45.603Z,0.30
2018-06-24T11:41:15.029Z,0.30
2018-06-24T11:43:44.895Z,0.30
2018-06-24T11:46:16.698Z,0.30
2018-06-24T11:48:47.466Z,0.30
2018-06-24T11:51:17.103Z,0.20
2018-06-24T11:53:46.208Z,0.30
2018-06-24T11:56:15.222Z,0.57
2018-06-24T11:58:46.631Z,0.30
2018-06-24T12:01:15.980Z,0.20
2018-06-24T12:03:45.874Z,0.20
2018-06-24T12:06:14.836Z,0.23
2018-06-24T12:08:44.155Z,0.30
2018-06-24T12:11:13.089Z,0.30
2018-06-24T12:13:41.811Z,0.20
2018-06-24T12:16:10.591Z,0.30
2018-06-24T12:18:39.115Z,0.30
2018-06-24T12:21:07.802Z,0.40
2018-06-24T12:23:36.727Z,0.30
2018-06-24T12:26:05.253Z,0.20
2018-06-24T12:28:33.990Z,1.00
2018-06-24T12:31:03.034Z,0.33
2018-06-24T12:33:31.513Z,0.20
2018-06-24T12:35:59.969Z,0.30
2018-06-24T12:38:28.581Z,0.30
2018-06-24T12:40:57.602Z,0.20
2018-06-24T12:43:26.147Z,0.50
2018-06-24T12:45:54.603Z,0.37
2018-06-24T12:48:23.066Z,0.30
2018-06-24T12:50:51.560Z,0.30
2018-06-24T12:53:26.753Z,2.62
2018-06-24T12:55:55.289Z,0.23
2018-06-24T12:58:24.164Z,0.30
2018-06-24T13:00:53.155Z,0.40
2018-06-24T13:03:21.028Z,0.15
2018-06-24T13:05:49.789Z,0.20
2018-06-24T13:08:18.570Z,0.30
2018-06-24T13:10:47.186Z,0.40
2018-06-24T13:13:15.764Z,0.30
2018-06-24T13:15:44.202Z,0.30
2018-06-24T13:18:12.694Z,0.30
2018-06-24T13:20:41.581Z,0.25
2018-06-24T13:23:10.165Z,0.30
2018-06-24T13:25:38.618Z,0.40
2018-06-24T13:28:07.060Z,0.30
2018-06-24T13:30:36.542Z,0.40
2018-06-24T13:33:05.022Z,0.28
2018-06-24T13:35:33.469Z,0.40
2018-06-24T13:38:01.919Z,0.47
2018-06-24T13:40:30.379Z,0.30
2018-06-24T13:42:59.097Z,0.30
2018-06-24T13:45:27.525Z,0.70
2018-06-24T13:47:56.037Z,0.30
2018-06-24T13:50:24.561Z,0.40
2018-06-24T13:52:52.998Z,0.40
2018-06-24T13:55:21.833Z,0.33
2018-06-24T13:57:50.256Z,0.20
2018-06-24T14:00:18.857Z,0.20
2018-06-24T14:02:47.358Z,0.30
2018-06-24T14:05:16.027Z,0.23
2018-06-24T14:07:44.566Z,0.30
2018-06-24T14:10:13.317Z,0.85
2018-06-24T14:12:42.082Z,0.30
2018-06-24T14:15:10.529Z,0.35
2018-06-24T14:17:39.038Z,0.20
2018-06-24T14:20:07.693Z,0.40
2018-06-24T14:22:36.399Z,0.30
2018-06-24T14:25:05.642Z,0.20
2018-06-24T14:27:34.250Z,0.40
2018-06-24T14:30:02.737Z,0.40
2018-06-24T14:32:31.203Z,0.30
2018-06-24T14:34:59.944Z,0.33
2018-06-24T14:37:28.802Z,0.20
2018-06-24T14:39:57.581Z,0.30
2018-06-24T14:42:26.325Z,0.35
2018-06-24T14:44:54.781Z,0.30
2018-06-24T14:47:23.245Z,0.20
2018-06-24T14:49:51.786Z,0.30
2018-06-24T14:52:20.310Z,0.30
2018-06-24T14:54:48.773Z,0.40
2018-06-24T14:57:17.299Z,0.50
2018-06-24T14:59:45.849Z,0.30
2018-06-24T15:02:14.323Z,0.40
2018-06-24T15:04:43.080Z,0.35
2018-06-24T15:07:11.843Z,0.68
2018-06-24T15:09:40.359Z,0.30
2018-06-24T15:12:09.294Z,0.30
2018-06-24T15:14:37.747Z,0.40
2018-06-24T15:17:06.274Z,0.30
2018-06-24T15:19:35.345Z,0.40
2018-06-24T15:22:04.285Z,0.40
2018-06-24T15:24:32.734Z,0.50
2018-06-24T15:27:01.483Z,0.40
2018-06-24T15:29:29.959Z,0.40
2018-06-24T15:31:58.437Z,0.40
2018-06-24T15:34:27.146Z,0.40
2018-06-24T15:36:56.025Z,0.30
2018-06-24T15:39:24.510Z,0.42
2018-06-24T15:41:53.195Z,0.30
2018-06-24T15:44:22.199Z,0.80
2018-06-24T15:46:50.649Z,0.40
2018-06-24T15:49:19.297Z,0.40
2018-06-24T15:51:48.230Z,0.30
2018-06-24T15:54:23.045Z,0.68
2018-06-24T15:56:51.668Z,0.40
2018-06-24T15:59:20.098Z,0.40
2018-06-24T16:01:48.561Z,0.40
2018-06-24T16:04:17.196Z,1.00
2018-06-24T16:06:45.634Z,0.65
2018-06-24T16:09:14.308Z,0.33
2018-06-24T16:11:43.909Z,0.82
2018-06-24T16:14:12.649Z,0.30
2018-06-24T16:16:41.196Z,0.50
2018-06-24T16:19:09.798Z,0.60
2018-06-24T16:21:38.226Z,0.60
2018-06-24T16:24:06.757Z,0.60
2018-06-24T16:26:35.479Z,0.60
2018-06-24T16:29:04.213Z,0.70
2018-06-24T16:31:32.701Z,0.90
2018-06-24T16:34:01.658Z,1.15
2018-06-24T16:36:30.111Z,1.17
2018-06-24T16:38:58.658Z,1.10
2018-06-24T16:41:27.297Z,0.90
2018-06-24T16:43:55.741Z,1.00
2018-06-24T16:46:24.197Z,1.10
2018-06-24T16:48:52.908Z,1.05
2018-06-24T16:51:21.345Z,1.22
2018-06-24T16:53:50.134Z,1.20
2018-06-24T16:56:19.280Z,1.60
2018-06-24T16:58:47.728Z,1.20
2018-06-24T17:01:16.217Z,0.60
2018-06-24T17:03:45.575Z,0.40
2018-06-24T17:06:14.014Z,0.30
2018-06-24T17:08:42.477Z,0.30
2018-06-24T17:11:11.507Z,0.30
2018-06-24T17:13:40.141Z,0.30
2018-06-24T17:16:08.801Z,0.17
2018-06-24T17:18:37.645Z,0.30
2018-06-24T17:21:07.041Z,0.20
2018-06-24T17:23:36.810Z,0.28
2018-06-24T17:26:05.861Z,0.40
2018-06-24T17:28:34.921Z,0.50
2018-06-24T17:31:05.966Z,0.30
2018-06-24T17:33:34.984Z,0.30
2018-06-24T17:36:03.426Z,0.30
2018-06-24T17:38:31.917Z,0.30
2018-06-24T17:41:00.739Z,0.50
2018-06-24T17:43:29.175Z,0.93
2018-06-24T17:45:57.864Z,1.90
2018-06-24T17:48:26.641Z,0.53
2018-06-24T17:50:55.105Z,0.53
2018-06-24T17:53:23.745Z,0.40
2018-06-24T17:55:52.386Z,0.50
2018-06-24T17:58:20.814Z,0.40
2018-06-24T18:00:49.326Z,0.30
2018-06-24T18:03:18.036Z,0.30
2018-06-24T18:05:46.681Z,0.47
2018-06-24T18:08:15.139Z,0.30
2018-06-24T18:10:43.738Z,0.17
2018-06-24T18:13:12.251Z,0.30
2018-06-24T18:15:40.709Z,0.30
2018-06-24T18:18:09.783Z,0.20
2018-06-24T18:20:38.347Z,0.23
2018-06-24T18:23:07.495Z,0.30
2018-06-24T18:25:36.782Z,0.30
2018-06-24T18:28:05.302Z,0.20
2018-06-24T18:30:33.874Z,0.37
2018-06-24T18:33:02.696Z,0.20
2018-06-24T18:35:31.115Z,0.23
2018-06-24T18:37:59.590Z,0.30
2018-06-24T18:40:28.276Z,0.30
2018-06-24T18:42:56.817Z,0.40
2018-06-24T18:45:25.355Z,0.30
2018-06-24T18:47:54.313Z,0.40
2018-06-24T18:50:22.753Z,0.40
2018-06-24T18:52:51.217Z,0.30
2018-06-24T18:55:19.857Z,0.20
2018-06-24T18:57:48.301Z,0.20
2018-06-24T19:00:16.756Z,0.40
2018-06-24T19:02:45.464Z,0.30
2018-06-24T19:05:14.041Z,0.30
2018-06-24T19:07:42.588Z,0.40
2018-06-24T19:10:11.561Z,0.40
2018-06-24T19:12:40.309Z,0.40
2018-06-24T19:15:08.851Z,0.40
2018-06-24T19:17:37.379Z,0.53
2018-06-24T19:20:06.599Z,0.40
2018-06-24T19:22:35.072Z,0.30
2018-06-24T19:25:03.530Z,0.40
2018-06-24T19:27:32.043Z,0.40
2018-06-24T19:30:00.521Z,0.30
2018-06-24T19:32:29.205Z,0.40
2018-06-24T19:34:58.377Z,0.60
2018-06-24T19:37:26.934Z,0.30
2018-06-24T19:39:55.503Z,0.40
2018-06-24T19:42:24.002Z,0.30
2018-06-24T19:44:52.492Z,0.30
2018-06-24T19:47:21.222Z,0.30
2018-06-24T19:49:50.029Z,0.33
2018-06-24T19:52:18.511Z,0.30
2018-06-24T19:54:46.942Z,0.90
2018-06-24T19:57:15.801Z,0.60
2018-06-24T19:59:44.489Z,0.50
2018-06-24T20:02:13.000Z,0.50
2018-06-24T20:04:41.584Z,0.47
2018-06-24T20:07:10.119Z,0.30
2018-06-24T20:09:38.554Z,0.30
2018-06-24T20:12:07.301Z,0.30
2018-06-24T20:14:35.973Z,0.30
2018-06-24T20:17:06.066Z,0.37
2018-06-24T20:19:34.657Z,0.30
2018-06-24T20:22:03.526Z,0.30
2018-06-24T20:24:31.954Z,0.30
2018-06-24T20:27:00.626Z,0.30
2018-06-24T20:29:29.205Z,0.40
2018-06-24T20:31:57.633Z,0.30
2018-06-24T20:34:32.724Z,0.40
2018-06-24T20:37:01.321Z,0.30
2018-06-24T20:39:29.858Z,0.40
2018-06-24T20:41:58.398Z,0.30
2018-06-24T20:44:26.954Z,0.40
2018-06-24T20:46:55.645Z,0.40
2018-06-24T20:49:24.117Z,0.40
2018-06-24T20:51:52.977Z,0.43
2018-06-24T20:54:21.482Z,0.47
2018-06-24T20:56:49.945Z,0.63
2018-06-24T20:59:18.489Z,0.40
2018-06-24T21:01:47.127Z,0.40
2018-06-24T21:04:15.657Z,0.40
2018-06-24T21:06:44.165Z,0.70
2018-06-24T21:09:12.993Z,3.30
2018-06-24T21:11:41.667Z,1.53
2018-06-24T21:14:10.446Z,1.57
2018-06-24T21:16:38.884Z,0.60
2018-06-24T21:19:07.338Z,0.67
2018-06-24T21:21:36.846Z,0.40
2018-06-24T21:24:05.477Z,0.53
2018-06-24T21:26:33.966Z,0.73
2018-06-24T21:29:02.759Z,1.17
2018-06-24T21:31:31.170Z,0.60
2018-06-24T21:33:59.604Z,0.40
2018-06-24T21:36:28.698Z,0.57
2018-06-24T21:38:57.617Z,0.50
2018-06-24T21:41:26.110Z,0.50
2018-06-24T21:43:54.963Z,0.57
2018-06-24T21:46:23.393Z,0.57
2018-06-24T21:48:51.970Z,0.40
2018-06-24T21:51:20.721Z,0.60
2018-06-24T21:53:49.166Z,0.50
2018-06-24T21:56:17.638Z,0.63
2018-06-24T21:58:46.469Z,0.30
2018-06-24T22:01:14.942Z,0.57
2018-06-24T22:03:43.485Z,0.40
2018-06-24T22:06:12.111Z,0.50
2018-06-24T22:08:40.530Z,0.30
2018-06-24T22:11:08.998Z,0.40
2018-06-24T22:13:37.965Z,0.47
2018-06-24T22:16:06.463Z,0.50
2018-06-24T22:18:35.519Z,0.50
2018-06-24T22:21:04.109Z,0.60
2018-06-24T22:23:32.538Z,0.30
2018-06-24T22:26:01.220Z,0.50
2018-06-24T22:28:29.994Z,0.43
2018-06-24T22:30:58.433Z,0.60
2018-06-24T22:33:26.889Z,0.50
2018-06-24T22:35:55.534Z,0.30
2018-06-24T22:38:23.969Z,0.50
2018-06-24T22:40:52.501Z,0.47
2018-06-24T22:43:22.381Z,0.43
2018-06-24T22:45:51.677Z,0.53
2018-06-24T22:48:20.229Z,0.40
2018-06-24T22:50:48.857Z,0.50
2018-06-24T22:53:17.465Z,0.50
2018-06-24T22:55:45.980Z,0.50
2018-06-24T22:58:14.511Z,0.40
2018-06-24T23:00:43.074Z,0.50
2018-06-24T23:03:11.545Z,0.63
2018-06-24T23:05:40.158Z,0.67
2018-06-24T23:08:08.855Z,0.60
2018-06-24T23:10:37.305Z,0.70
2018-06-24T23:13:06.465Z,0.73
2018-06-24T23:15:34.994Z,0.63
2018-06-24T23:18:03.462Z,0.60
2018-06-24T23:20:32.157Z,0.50
2018-06-24T23:23:00.968Z,0.60
2018-06-24T23:25:29.597Z,0.57
2018-06-24T23:27:58.265Z,0.53
2018-06-24T23:30:27.014Z,0.70
2018-06-24T23:32:56.250Z,0.60
2018-06-24T23:35:24.889Z,0.40
2018-06-24T23:37:53.438Z,0.57
2018-06-24T23:40:21.950Z,0.63
2018-06-24T23:42:50.554Z,0.60
2018-06-24T23:45:19.483Z,0.53
2018-06-24T23:47:47.929Z,0.60
2018-06-24T23:50:16.518Z,0.40
2018-06-24T23:52:45.886Z,0.50
2018-06-24T23:55:14.379Z,0.77
2018-06-24T23:57:42.902Z,0.30
